sensor_id;sensor_type;location;lat;lon;timestamp;temperature;humidity
1347;DHT22;667;48.796;9.480;2023-03-02T00:02:05;4.40;65.80
1347;DHT22;667;48.796;9.480;2023-03-02T00:04:39;4.30;65.70
1347;DHT22;667;48.796;9.480;2023-03-02T00:07:08;4.30;65.60
1347;DHT22;667;48.796;9.480;2023-03-02T00:09:35;4.30;66.00
1347;DHT22;667;48.796;9.480;2023-03-02T00:12:02;4.30;66.10
1347;DHT22;667;48.796;9.480;2023-03-02T00:14:29;4.30;66.40
1347;DHT22;667;48.796;9.480;2023-03-02T00:16:55;4.30;66.40
1347;DHT22;667;48.796;9.480;2023-03-02T00:19:20;4.30;66.20
1347;DHT22;667;48.796;9.480;2023-03-02T00:21:46;4.30;66.40
1347;DHT22;667;48.796;9.480;2023-03-02T00:24:11;4.30;66.40
1347;DHT22;667;48.796;9.480;2023-03-02T00:26:39;4.30;66.40
1347;DHT22;667;48.796;9.480;2023-03-02T00:29:05;4.30;66.20
1347;DHT22;667;48.796;9.480;2023-03-02T00:31:31;4.30;66.30
1347;DHT22;667;48.796;9.480;2023-03-02T00:33:57;4.30;66.30
1347;DHT22;667;48.796;9.480;2023-03-02T00:36:23;4.30;66.20
1347;DHT22;667;48.796;9.480;2023-03-02T00:38:49;4.20;66.20
1347;DHT22;667;48.796;9.480;2023-03-02T00:41:16;4.20;66.10
1347;DHT22;667;48.796;9.480;2023-03-02T00:43:42;4.20;66.00
1347;DHT22;667;48.796;9.480;2023-03-02T00:46:13;4.20;66.20
1347;DHT22;667;48.796;9.480;2023-03-02T00:48:39;4.20;66.40
1347;DHT22;667;48.796;9.480;2023-03-02T00:51:05;4.20;66.50
1347;DHT22;667;48.796;9.480;2023-03-02T00:53:33;4.20;66.50
1347;DHT22;667;48.796;9.480;2023-03-02T00:55:59;4.20;66.40
1347;DHT22;667;48.796;9.480;2023-03-02T00:58:26;4.10;66.10
1347;DHT22;667;48.796;9.480;2023-03-02T01:00:51;4.20;66.20
1347;DHT22;667;48.796;9.480;2023-03-02T01:03:17;4.20;66.00
1347;DHT22;667;48.796;9.480;2023-03-02T01:05:43;4.20;65.90
1347;DHT22;667;48.796;9.480;2023-03-02T01:08:08;4.10;65.70
1347;DHT22;667;48.796;9.480;2023-03-02T01:10:34;4.10;65.70
1347;DHT22;667;48.796;9.480;2023-03-02T01:13:00;4.10;65.70
1347;DHT22;667;48.796;9.480;2023-03-02T01:15:25;4.10;66.00
1347;DHT22;667;48.796;9.480;2023-03-02T01:17:51;4.10;65.80
1347;DHT22;667;48.796;9.480;2023-03-02T01:20:17;4.10;65.70
1347;DHT22;667;48.796;9.480;2023-03-02T01:22:43;4.10;65.70
1347;DHT22;667;48.796;9.480;2023-03-02T01:25:10;4.10;65.70
1347;DHT22;667;48.796;9.480;2023-03-02T01:27:37;4.00;65.80
1347;DHT22;667;48.796;9.480;2023-03-02T01:30:03;4.00;66.00
1347;DHT22;667;48.796;9.480;2023-03-02T01:32:29;4.00;66.20
1347;DHT22;667;48.796;9.480;2023-03-02T01:34:55;4.00;66.30
1347;DHT22;667;48.796;9.480;2023-03-02T01:37:21;4.10;66.40
1347;DHT22;667;48.796;9.480;2023-03-02T01:39:48;4.00;66.30
1347;DHT22;667;48.796;9.480;2023-03-02T01:42:14;4.00;66.30
1347;DHT22;667;48.796;9.480;2023-03-02T01:49:40;4.00;65.90
1347;DHT22;667;48.796;9.480;2023-03-02T01:52:07;4.00;65.80
1347;DHT22;667;48.796;9.480;2023-03-02T01:54:34;4.00;65.70
1347;DHT22;667;48.796;9.480;2023-03-02T01:57:02;4.00;65.80
1347;DHT22;667;48.796;9.480;2023-03-02T01:59:30;3.90;65.80
1347;DHT22;667;48.796;9.480;2023-03-02T02:01:59;3.90;65.80
1347;DHT22;667;48.796;9.480;2023-03-02T02:04:27;3.90;65.90
1347;DHT22;667;48.796;9.480;2023-03-02T02:07:01;3.90;65.90
1347;DHT22;667;48.796;9.480;2023-03-02T02:09:29;3.90;65.90
1347;DHT22;667;48.796;9.480;2023-03-02T02:11:56;3.90;66.00
1347;DHT22;667;48.796;9.480;2023-03-02T02:14:21;3.90;66.00
1347;DHT22;667;48.796;9.480;2023-03-02T02:16:48;3.90;66.00
1347;DHT22;667;48.796;9.480;2023-03-02T02:22:09;3.80;65.60
1347;DHT22;667;48.796;9.480;2023-03-02T02:24:45;3.80;65.70
1347;DHT22;667;48.796;9.480;2023-03-02T02:27:14;3.80;66.00
1347;DHT22;667;48.796;9.480;2023-03-02T02:29:46;3.80;66.10
1347;DHT22;667;48.796;9.480;2023-03-02T02:32:16;3.80;66.10
1347;DHT22;667;48.796;9.480;2023-03-02T02:34:50;3.70;65.90
1347;DHT22;667;48.796;9.480;2023-03-02T02:39:52;3.70;66.20
1347;DHT22;667;48.796;9.480;2023-03-02T02:42:24;3.70;66.50
1347;DHT22;667;48.796;9.480;2023-03-02T02:44:54;3.70;66.50
1347;DHT22;667;48.796;9.480;2023-03-02T02:47:21;3.70;66.30
1347;DHT22;667;48.796;9.480;2023-03-02T02:49:49;3.70;66.20
1347;DHT22;667;48.796;9.480;2023-03-02T02:52:18;3.60;66.00
1347;DHT22;667;48.796;9.480;2023-03-02T02:54:47;3.60;65.70
1347;DHT22;667;48.796;9.480;2023-03-02T02:57:15;3.60;65.60
1347;DHT22;667;48.796;9.480;2023-03-02T02:59:54;3.60;65.70
1347;DHT22;667;48.796;9.480;2023-03-02T03:02:23;3.70;65.80
1347;DHT22;667;48.796;9.480;2023-03-02T03:04:49;3.60;65.80
1347;DHT22;667;48.796;9.480;2023-03-02T03:07:23;3.60;65.90
1347;DHT22;667;48.796;9.480;2023-03-02T03:12:28;3.60;66.00
1347;DHT22;667;48.796;9.480;2023-03-02T03:14:56;3.60;66.00
1347;DHT22;667;48.796;9.480;2023-03-02T03:17:22;3.60;66.00
1347;DHT22;667;48.796;9.480;2023-03-02T03:19:48;3.50;65.80
1347;DHT22;667;48.796;9.480;2023-03-02T03:22:15;3.50;65.70
1347;DHT22;667;48.796;9.480;2023-03-02T03:24:42;3.60;65.80
1347;DHT22;667;48.796;9.480;2023-03-02T03:27:10;3.60;65.80
1347;DHT22;667;48.796;9.480;2023-03-02T03:29:39;3.50;65.50
1347;DHT22;667;48.796;9.480;2023-03-02T03:32:05;3.50;65.80
1347;DHT22;667;48.796;9.480;2023-03-02T03:34:32;3.50;65.80
1347;DHT22;667;48.796;9.480;2023-03-02T03:36:58;3.50;65.80
1347;DHT22;667;48.796;9.480;2023-03-02T03:39:29;3.40;65.80
1347;DHT22;667;48.796;9.480;2023-03-02T03:41:55;3.40;65.90
1347;DHT22;667;48.796;9.480;2023-03-02T03:44:21;3.40;66.00
1347;DHT22;667;48.796;9.480;2023-03-02T03:46:47;3.40;66.30
1347;DHT22;667;48.796;9.480;2023-03-02T03:49:13;3.40;66.10
1347;DHT22;667;48.796;9.480;2023-03-02T03:51:39;3.40;66.20
1347;DHT22;667;48.796;9.480;2023-03-02T03:54:06;3.40;66.10
1347;DHT22;667;48.796;9.480;2023-03-02T03:56:36;3.40;66.30
1347;DHT22;667;48.796;9.480;2023-03-02T03:59:04;3.40;66.40
1347;DHT22;667;48.796;9.480;2023-03-02T04:04:06;3.40;66.30
1347;DHT22;667;48.796;9.480;2023-03-02T04:06:32;3.30;66.10
1347;DHT22;667;48.796;9.480;2023-03-02T04:08:57;3.40;66.20
1347;DHT22;667;48.796;9.480;2023-03-02T04:11:35;3.30;66.20
1347;DHT22;667;48.796;9.480;2023-03-02T04:14:02;3.30;65.90
1347;DHT22;667;48.796;9.480;2023-03-02T04:16:28;3.30;65.60
1347;DHT22;667;48.796;9.480;2023-03-02T04:18:54;3.20;65.90
1347;DHT22;667;48.796;9.480;2023-03-02T04:21:20;3.20;66.20
1347;DHT22;667;48.796;9.480;2023-03-02T04:23:46;3.20;66.10
1347;DHT22;667;48.796;9.480;2023-03-02T04:26:11;3.20;66.10
1347;DHT22;667;48.796;9.480;2023-03-02T04:28:37;3.20;66.00
1347;DHT22;667;48.796;9.480;2023-03-02T04:31:03;3.20;66.20
1347;DHT22;667;48.796;9.480;2023-03-02T04:33:28;3.20;66.20
1347;DHT22;667;48.796;9.480;2023-03-02T04:35:54;3.10;66.20
1347;DHT22;667;48.796;9.480;2023-03-02T04:38:20;3.20;66.50
1347;DHT22;667;48.796;9.480;2023-03-02T04:40:46;3.10;66.40
1347;DHT22;667;48.796;9.480;2023-03-02T04:43:12;3.10;66.40
1347;DHT22;667;48.796;9.480;2023-03-02T04:45:37;3.10;66.20
1347;DHT22;667;48.796;9.480;2023-03-02T04:48:04;3.10;66.20
1347;DHT22;667;48.796;9.480;2023-03-02T04:50:30;3.10;66.40
1347;DHT22;667;48.796;9.480;2023-03-02T04:52:56;3.10;66.40
1347;DHT22;667;48.796;9.480;2023-03-02T04:55:23;3.00;66.00
1347;DHT22;667;48.796;9.480;2023-03-02T04:57:49;3.00;65.90
1347;DHT22;667;48.796;9.480;2023-03-02T05:00:16;3.00;66.00
1347;DHT22;667;48.796;9.480;2023-03-02T05:02:42;3.00;66.10
1347;DHT22;667;48.796;9.480;2023-03-02T05:05:18;3.10;66.10
1347;DHT22;667;48.796;9.480;2023-03-02T05:07:44;3.00;66.00
1347;DHT22;667;48.796;9.480;2023-03-02T05:10:11;3.00;66.10
1347;DHT22;667;48.796;9.480;2023-03-02T05:12:37;3.00;66.10
1347;DHT22;667;48.796;9.480;2023-03-02T05:15:32;3.00;66.20
1347;DHT22;667;48.796;9.480;2023-03-02T05:17:59;3.00;66.20
1347;DHT22;667;48.796;9.480;2023-03-02T05:20:25;2.90;66.10
1347;DHT22;667;48.796;9.480;2023-03-02T05:22:57;3.00;66.10
1347;DHT22;667;48.796;9.480;2023-03-02T05:25:24;3.00;65.80
1347;DHT22;667;48.796;9.480;2023-03-02T05:27:49;2.90;65.70
1347;DHT22;667;48.796;9.480;2023-03-02T05:30:15;3.00;65.70
1347;DHT22;667;48.796;9.480;2023-03-02T05:32:41;3.00;65.70
1347;DHT22;667;48.796;9.480;2023-03-02T05:35:07;3.00;65.50
1347;DHT22;667;48.796;9.480;2023-03-02T05:37:32;2.90;65.50
1347;DHT22;667;48.796;9.480;2023-03-02T05:39:58;2.90;65.80
1347;DHT22;667;48.796;9.480;2023-03-02T05:42:24;2.90;66.00
1347;DHT22;667;48.796;9.480;2023-03-02T05:44:49;2.90;66.00
1347;DHT22;667;48.796;9.480;2023-03-02T05:47:15;2.90;66.20
1347;DHT22;667;48.796;9.480;2023-03-02T05:49:40;2.90;66.10
1347;DHT22;667;48.796;9.480;2023-03-02T05:52:06;2.90;66.20
1347;DHT22;667;48.796;9.480;2023-03-02T05:54:31;2.90;66.10
1347;DHT22;667;48.796;9.480;2023-03-02T05:56:57;2.80;65.80
1347;DHT22;667;48.796;9.480;2023-03-02T05:59:23;2.80;65.70
1347;DHT22;667;48.796;9.480;2023-03-02T06:01:48;2.80;65.60
1347;DHT22;667;48.796;9.480;2023-03-02T06:04:15;2.80;65.70
1347;DHT22;667;48.796;9.480;2023-03-02T06:06:40;2.80;65.90
1347;DHT22;667;48.796;9.480;2023-03-02T06:09:06;2.80;66.00
1347;DHT22;667;48.796;9.480;2023-03-02T06:11:31;2.80;66.00
1347;DHT22;667;48.796;9.480;2023-03-02T06:13:57;2.80;66.10
1347;DHT22;667;48.796;9.480;2023-03-02T06:16:22;2.80;66.20
1347;DHT22;667;48.796;9.480;2023-03-02T06:18:48;2.80;66.50
1347;DHT22;667;48.796;9.480;2023-03-02T06:21:14;2.80;66.50
1347;DHT22;667;48.796;9.480;2023-03-02T06:23:39;2.80;66.50
1347;DHT22;667;48.796;9.480;2023-03-02T06:26:10;2.80;66.60
1347;DHT22;667;48.796;9.480;2023-03-02T06:28:36;2.80;66.90
1347;DHT22;667;48.796;9.480;2023-03-02T06:31:02;2.80;67.10
1347;DHT22;667;48.796;9.480;2023-03-02T06:33:27;2.80;67.20
1347;DHT22;667;48.796;9.480;2023-03-02T06:35:54;2.80;67.10
1347;DHT22;667;48.796;9.480;2023-03-02T06:38:20;2.80;67.20
1347;DHT22;667;48.796;9.480;2023-03-02T06:40:46;2.90;67.40
1347;DHT22;667;48.796;9.480;2023-03-02T06:43:11;2.90;67.50
1347;DHT22;667;48.796;9.480;2023-03-02T06:45:37;2.90;67.30
1347;DHT22;667;48.796;9.480;2023-03-02T06:48:04;3.00;67.50
1347;DHT22;667;48.796;9.480;2023-03-02T06:50:30;3.00;67.60
1347;DHT22;667;48.796;9.480;2023-03-02T06:52:56;3.00;67.90
1347;DHT22;667;48.796;9.480;2023-03-02T06:55:22;3.00;67.90
1347;DHT22;667;48.796;9.480;2023-03-02T06:57:47;3.00;68.00
1347;DHT22;667;48.796;9.480;2023-03-02T07:00:13;3.10;68.30
1347;DHT22;667;48.796;9.480;2023-03-02T07:02:45;3.20;68.60
1347;DHT22;667;48.796;9.480;2023-03-02T07:05:11;3.20;68.70
1347;DHT22;667;48.796;9.480;2023-03-02T07:07:37;3.30;68.90
1347;DHT22;667;48.796;9.480;2023-03-02T07:10:04;3.30;68.90
1347;DHT22;667;48.796;9.480;2023-03-02T07:12:30;3.40;68.90
1347;DHT22;667;48.796;9.480;2023-03-02T07:14:56;3.40;68.90
1347;DHT22;667;48.796;9.480;2023-03-02T07:17:21;3.50;68.90
1347;DHT22;667;48.796;9.480;2023-03-02T07:19:47;3.50;68.90
1347;DHT22;667;48.796;9.480;2023-03-02T07:22:12;3.50;68.90
1347;DHT22;667;48.796;9.480;2023-03-02T07:24:38;3.60;69.00
1347;DHT22;667;48.796;9.480;2023-03-02T07:27:03;3.60;69.10
1347;DHT22;667;48.796;9.480;2023-03-02T07:29:29;3.60;69.00
1347;DHT22;667;48.796;9.480;2023-03-02T07:31:55;3.70;69.10
1347;DHT22;667;48.796;9.480;2023-03-02T07:34:23;3.70;69.00
1347;DHT22;667;48.796;9.480;2023-03-02T07:36:50;3.80;69.00
1347;DHT22;667;48.796;9.480;2023-03-02T07:39:16;3.80;69.00
1347;DHT22;667;48.796;9.480;2023-03-02T07:41:41;3.90;68.90
1347;DHT22;667;48.796;9.480;2023-03-02T07:44:07;3.90;68.80
1347;DHT22;667;48.796;9.480;2023-03-02T07:46:33;4.00;68.80
1347;DHT22;667;48.796;9.480;2023-03-02T07:48:58;4.10;69.00
1347;DHT22;667;48.796;9.480;2023-03-02T07:51:24;4.20;68.90
1347;DHT22;667;48.796;9.480;2023-03-02T07:53:50;4.30;68.50
1347;DHT22;667;48.796;9.480;2023-03-02T07:56:15;4.40;68.20
1347;DHT22;667;48.796;9.480;2023-03-02T07:58:41;4.50;68.10
1347;DHT22;667;48.796;9.480;2023-03-02T08:01:07;4.60;67.80
1347;DHT22;667;48.796;9.480;2023-03-02T08:03:33;4.60;67.60
1347;DHT22;667;48.796;9.480;2023-03-02T08:06:06;4.70;67.30
1347;DHT22;667;48.796;9.480;2023-03-02T08:08:32;4.80;67.20
1347;DHT22;667;48.796;9.480;2023-03-02T08:11:10;4.90;67.00
1347;DHT22;667;48.796;9.480;2023-03-02T08:13:36;5.00;66.80
1347;DHT22;667;48.796;9.480;2023-03-02T08:16:04;5.10;66.70
1347;DHT22;667;48.796;9.480;2023-03-02T08:18:30;5.20;66.70
1347;DHT22;667;48.796;9.480;2023-03-02T08:20:56;5.30;66.50
1347;DHT22;667;48.796;9.480;2023-03-02T08:23:23;5.40;66.40
1347;DHT22;667;48.796;9.480;2023-03-02T08:25:48;5.50;66.20
1347;DHT22;667;48.796;9.480;2023-03-02T08:28:14;5.60;66.20
1347;DHT22;667;48.796;9.480;2023-03-02T08:30:40;5.80;66.10
1347;DHT22;667;48.796;9.480;2023-03-02T08:33:05;5.80;65.90
1347;DHT22;667;48.796;9.480;2023-03-02T08:35:31;5.90;65.60
1347;DHT22;667;48.796;9.480;2023-03-02T08:37:56;6.00;65.70
1347;DHT22;667;48.796;9.480;2023-03-02T08:40:24;6.10;65.50
1347;DHT22;667;48.796;9.480;2023-03-02T08:42:49;6.20;65.30
1347;DHT22;667;48.796;9.480;2023-03-02T08:45:24;6.30;65.20
1347;DHT22;667;48.796;9.480;2023-03-02T08:47:52;6.50;65.10
1347;DHT22;667;48.796;9.480;2023-03-02T08:50:19;6.60;64.90
1347;DHT22;667;48.796;9.480;2023-03-02T08:52:44;6.70;64.70
1347;DHT22;667;48.796;9.480;2023-03-02T08:55:10;6.80;64.50
1347;DHT22;667;48.796;9.480;2023-03-02T08:57:36;6.90;64.20
1347;DHT22;667;48.796;9.480;2023-03-02T09:00:02;7.10;64.10
1347;DHT22;667;48.796;9.480;2023-03-02T09:02:28;7.20;63.80
1347;DHT22;667;48.796;9.480;2023-03-02T09:04:53;7.30;63.10
1347;DHT22;667;48.796;9.480;2023-03-02T09:07:20;7.50;63.90
1347;DHT22;667;48.796;9.480;2023-03-02T09:09:45;7.60;62.90
1347;DHT22;667;48.796;9.480;2023-03-02T09:12:11;7.70;62.20
1347;DHT22;667;48.796;9.480;2023-03-02T09:14:36;7.90;62.00
1347;DHT22;667;48.796;9.480;2023-03-02T09:17:02;8.10;61.90
1347;DHT22;667;48.796;9.480;2023-03-02T09:19:28;8.20;62.10
1347;DHT22;667;48.796;9.480;2023-03-02T09:21:54;8.40;61.70
1347;DHT22;667;48.796;9.480;2023-03-02T09:24:19;8.60;61.10
1347;DHT22;667;48.796;9.480;2023-03-02T09:26:45;8.80;60.80
1347;DHT22;667;48.796;9.480;2023-03-02T09:29:10;8.90;60.10
1347;DHT22;667;48.796;9.480;2023-03-02T09:31:36;9.10;59.70
1347;DHT22;667;48.796;9.480;2023-03-02T09:34:03;9.30;59.20
1347;DHT22;667;48.796;9.480;2023-03-02T09:36:28;9.40;58.70
1347;DHT22;667;48.796;9.480;2023-03-02T09:38:57;9.60;58.80
1347;DHT22;667;48.796;9.480;2023-03-02T09:44:20;9.90;58.20
1347;DHT22;667;48.796;9.480;2023-03-02T09:47:03;10.10;57.20
1347;DHT22;667;48.796;9.480;2023-03-02T09:52:30;10.40;56.60
1347;DHT22;667;48.796;9.480;2023-03-02T09:55:18;10.60;56.40
1347;DHT22;667;48.796;9.480;2023-03-02T09:57:46;10.70;55.90
1347;DHT22;667;48.796;9.480;2023-03-02T10:00:22;10.90;55.80
1347;DHT22;667;48.796;9.480;2023-03-02T10:05:27;11.20;55.00
1347;DHT22;667;48.796;9.480;2023-03-02T10:07:52;11.30;54.80
1347;DHT22;667;48.796;9.480;2023-03-02T10:10:33;11.50;54.80
1347;DHT22;667;48.796;9.480;2023-03-02T10:16:09;11.80;54.20
1347;DHT22;667;48.796;9.480;2023-03-02T10:21:29;12.00;52.80
1347;DHT22;667;48.796;9.480;2023-03-02T10:26:49;12.30;52.40
1347;DHT22;667;48.796;9.480;2023-03-02T10:32:22;12.50;52.40
1347;DHT22;667;48.796;9.480;2023-03-02T10:34:50;12.60;52.20
1347;DHT22;667;48.796;9.480;2023-03-02T10:37:22;12.70;51.70
1347;DHT22;667;48.796;9.480;2023-03-02T10:39:50;12.70;51.50
1347;DHT22;667;48.796;9.480;2023-03-02T10:44:47;13.00;51.70
1347;DHT22;667;48.796;9.480;2023-03-02T10:47:20;13.00;51.70
1347;DHT22;667;48.796;9.480;2023-03-02T10:49:47;13.20;51.30
1347;DHT22;667;48.796;9.480;2023-03-02T10:52:24;13.30;50.60
1347;DHT22;667;48.796;9.480;2023-03-02T10:55:01;13.30;50.30
1347;DHT22;667;48.796;9.480;2023-03-02T10:57:38;13.30;50.50
1347;DHT22;667;48.796;9.480;2023-03-02T11:00:14;13.30;49.90
1347;DHT22;667;48.796;9.480;2023-03-02T11:05:38;13.30;50.10
1347;DHT22;667;48.796;9.480;2023-03-02T11:08:17;13.40;50.00
1347;DHT22;667;48.796;9.480;2023-03-02T11:10:59;13.40;50.10
1347;DHT22;667;48.796;9.480;2023-03-02T11:15:59;13.50;50.30
1347;DHT22;667;48.796;9.480;2023-03-02T11:21:04;13.60;50.20
1347;DHT22;667;48.796;9.480;2023-03-02T11:26:35;13.70;50.20
1347;DHT22;667;48.796;9.480;2023-03-02T11:29:21;13.80;50.00
1347;DHT22;667;48.796;9.480;2023-03-02T11:31:49;13.80;49.40
1347;DHT22;667;48.796;9.480;2023-03-02T11:37:39;13.80;49.60
1347;DHT22;667;48.796;9.480;2023-03-02T11:42:42;13.80;50.10
1347;DHT22;667;48.796;9.480;2023-03-02T11:47:44;13.80;48.80
1347;DHT22;667;48.796;9.480;2023-03-02T11:50:13;13.70;49.00
1347;DHT22;667;48.796;9.480;2023-03-02T11:52:43;13.70;49.10
1347;DHT22;667;48.796;9.480;2023-03-02T11:55:19;13.60;49.30
1347;DHT22;667;48.796;9.480;2023-03-02T11:57:55;13.60;49.70
1347;DHT22;667;48.796;9.480;2023-03-02T12:00:38;13.60;49.80
1347;DHT22;667;48.796;9.480;2023-03-02T12:05:44;13.50;50.00
1347;DHT22;667;48.796;9.480;2023-03-02T12:10:59;13.50;50.30
1347;DHT22;667;48.796;9.480;2023-03-02T12:13:33;13.50;49.90
1347;DHT22;667;48.796;9.480;2023-03-02T12:16:00;13.40;50.10
1347;DHT22;667;48.796;9.480;2023-03-02T12:18:40;13.50;50.50
1347;DHT22;667;48.796;9.480;2023-03-02T12:21:13;13.50;50.40
1347;DHT22;667;48.796;9.480;2023-03-02T12:31:23;13.70;50.60
1347;DHT22;667;48.796;9.480;2023-03-02T12:33:50;13.70;50.40
1347;DHT22;667;48.796;9.480;2023-03-02T12:36:30;13.70;50.00
1347;DHT22;667;48.796;9.480;2023-03-02T12:47:57;13.40;50.00
1347;DHT22;667;48.796;9.480;2023-03-02T12:50:26;13.40;50.10
1347;DHT22;667;48.796;9.480;2023-03-02T12:53:02;13.30;50.50
1347;DHT22;667;48.796;9.480;2023-03-02T12:55:28;13.30;50.90
1347;DHT22;667;48.796;9.480;2023-03-02T12:57:58;13.30;50.80
1347;DHT22;667;48.796;9.480;2023-03-02T13:00:34;13.30;51.10
1347;DHT22;667;48.796;9.480;2023-03-02T13:03:00;13.30;51.10
1347;DHT22;667;48.796;9.480;2023-03-02T13:05:30;13.30;51.20
1347;DHT22;667;48.796;9.480;2023-03-02T13:08:12;13.20;51.40
1347;DHT22;667;48.796;9.480;2023-03-02T13:10:47;13.30;51.50
1347;DHT22;667;48.796;9.480;2023-03-02T13:13:18;13.30;51.30
1347;DHT22;667;48.796;9.480;2023-03-02T13:18:19;13.40;51.40
1347;DHT22;667;48.796;9.480;2023-03-02T13:20:45;13.40;51.30
1347;DHT22;667;48.796;9.480;2023-03-02T13:23:15;13.30;51.20
1347;DHT22;667;48.796;9.480;2023-03-02T13:25:58;13.30;51.30
1347;DHT22;667;48.796;9.480;2023-03-02T13:28:28;13.20;51.40
1347;DHT22;667;48.796;9.480;2023-03-02T13:31:16;13.10;51.40
1347;DHT22;667;48.796;9.480;2023-03-02T13:33:47;13.10;51.50
1347;DHT22;667;48.796;9.480;2023-03-02T13:36:24;13.00;51.50
1347;DHT22;667;48.796;9.480;2023-03-02T13:38:56;13.00;51.70
1347;DHT22;667;48.796;9.480;2023-03-02T13:41:32;13.00;51.90
1347;DHT22;667;48.796;9.480;2023-03-02T13:43:58;13.00;52.20
1347;DHT22;667;48.796;9.480;2023-03-02T13:46:35;13.00;52.10
1347;DHT22;667;48.796;9.480;2023-03-02T13:49:02;12.90;52.00
1347;DHT22;667;48.796;9.480;2023-03-02T13:51:33;12.90;52.20
1347;DHT22;667;48.796;9.480;2023-03-02T13:54:18;12.90;52.20
1347;DHT22;667;48.796;9.480;2023-03-02T13:56:44;13.00;52.40
1347;DHT22;667;48.796;9.480;2023-03-02T13:59:15;13.00;52.40
1347;DHT22;667;48.796;9.480;2023-03-02T14:01:41;13.00;52.30
1347;DHT22;667;48.796;9.480;2023-03-02T14:04:11;12.90;52.20
1347;DHT22;667;48.796;9.480;2023-03-02T14:06:37;12.90;52.20
1347;DHT22;667;48.796;9.480;2023-03-02T14:09:02;12.90;52.10
1347;DHT22;667;48.796;9.480;2023-03-02T14:11:35;12.90;52.10
1347;DHT22;667;48.796;9.480;2023-03-02T14:14:03;12.90;52.30
1347;DHT22;667;48.796;9.480;2023-03-02T14:16:30;12.80;52.40
1347;DHT22;667;48.796;9.480;2023-03-02T14:18:58;12.80;52.50
1347;DHT22;667;48.796;9.480;2023-03-02T14:21:24;12.80;52.60
1347;DHT22;667;48.796;9.480;2023-03-02T14:23:51;12.80;52.50
1347;DHT22;667;48.796;9.480;2023-03-02T14:29:05;12.90;52.70
1347;DHT22;667;48.796;9.480;2023-03-02T14:31:31;12.90;52.70
1347;DHT22;667;48.796;9.480;2023-03-02T14:33:56;12.90;52.80
1347;DHT22;667;48.796;9.480;2023-03-02T14:36:28;12.90;52.80
1347;DHT22;667;48.796;9.480;2023-03-02T14:38:59;12.90;52.90
1347;DHT22;667;48.796;9.480;2023-03-02T14:41:27;12.90;52.90
1347;DHT22;667;48.796;9.480;2023-03-02T14:43:52;12.90;53.00
1347;DHT22;667;48.796;9.480;2023-03-02T14:46:18;12.80;52.90
1347;DHT22;667;48.796;9.480;2023-03-02T14:48:44;12.80;52.90
1347;DHT22;667;48.796;9.480;2023-03-02T14:51:29;12.70;52.90
1347;DHT22;667;48.796;9.480;2023-03-02T14:53:58;12.70;53.10
1347;DHT22;667;48.796;9.480;2023-03-02T14:56:24;12.70;53.10
1347;DHT22;667;48.796;9.480;2023-03-02T14:58:51;12.70;53.20
1347;DHT22;667;48.796;9.480;2023-03-02T15:01:18;12.70;53.20
1347;DHT22;667;48.796;9.480;2023-03-02T15:03:44;12.70;53.30
1347;DHT22;667;48.796;9.480;2023-03-02T15:06:37;12.70;53.20
1347;DHT22;667;48.796;9.480;2023-03-02T15:09:03;12.70;53.30
1347;DHT22;667;48.796;9.480;2023-03-02T15:11:29;12.70;53.40
1347;DHT22;667;48.796;9.480;2023-03-02T15:13:54;12.70;53.40
1347;DHT22;667;48.796;9.480;2023-03-02T15:16:20;12.70;53.40
1347;DHT22;667;48.796;9.480;2023-03-02T15:18:50;12.70;53.40
1347;DHT22;667;48.796;9.480;2023-03-02T15:21:19;12.70;53.60
1347;DHT22;667;48.796;9.480;2023-03-02T15:23:45;12.70;53.50
1347;DHT22;667;48.796;9.480;2023-03-02T15:26:11;12.70;53.40
1347;DHT22;667;48.796;9.480;2023-03-02T15:28:37;12.70;53.40
1347;DHT22;667;48.796;9.480;2023-03-02T15:33:32;12.60;54.00
1347;DHT22;667;48.796;9.480;2023-03-02T15:35:58;12.60;53.60
1347;DHT22;667;48.796;9.480;2023-03-02T15:38:24;12.60;53.50
1347;DHT22;667;48.796;9.480;2023-03-02T15:40:50;12.60;53.50
1347;DHT22;667;48.796;9.480;2023-03-02T15:43:15;12.60;53.70
1347;DHT22;667;48.796;9.480;2023-03-02T15:45:46;12.60;53.70
1347;DHT22;667;48.796;9.480;2023-03-02T15:48:12;12.60;53.80
1347;DHT22;667;48.796;9.480;2023-03-02T15:50:38;12.60;53.70
1347;DHT22;667;48.796;9.480;2023-03-02T15:53:04;12.60;53.70
1347;DHT22;667;48.796;9.480;2023-03-02T15:55:29;12.60;53.70
1347;DHT22;667;48.796;9.480;2023-03-02T15:57:55;12.60;53.70
1347;DHT22;667;48.796;9.480;2023-03-02T16:00:22;12.50;53.50
1347;DHT22;667;48.796;9.480;2023-03-02T16:02:48;12.50;53.50
1347;DHT22;667;48.796;9.480;2023-03-02T16:05:14;12.50;53.60
1347;DHT22;667;48.796;9.480;2023-03-02T16:07:40;12.50;53.70
1347;DHT22;667;48.796;9.480;2023-03-02T16:10:06;12.40;53.70
1347;DHT22;667;48.796;9.480;2023-03-02T16:12:32;12.40;53.70
1347;DHT22;667;48.796;9.480;2023-03-02T16:14:57;12.40;53.80
1347;DHT22;667;48.796;9.480;2023-03-02T16:17:23;12.30;53.80
1347;DHT22;667;48.796;9.480;2023-03-02T16:19:48;12.30;53.70
1347;DHT22;667;48.796;9.480;2023-03-02T16:22:14;12.20;53.70
1347;DHT22;667;48.796;9.480;2023-03-02T16:24:40;12.20;53.70
1347;DHT22;667;48.796;9.480;2023-03-02T16:27:05;12.20;53.90
1347;DHT22;667;48.796;9.480;2023-03-02T16:29:31;12.10;54.00
1347;DHT22;667;48.796;9.480;2023-03-02T16:31:56;12.10;54.00
1347;DHT22;667;48.796;9.480;2023-03-02T16:34:22;12.10;54.20
1347;DHT22;667;48.796;9.480;2023-03-02T16:36:48;12.00;54.20
1347;DHT22;667;48.796;9.480;2023-03-02T16:39:14;12.00;54.30
1347;DHT22;667;48.796;9.480;2023-03-02T16:41:41;11.90;54.30
1347;DHT22;667;48.796;9.480;2023-03-02T16:44:08;11.90;54.40
1347;DHT22;667;48.796;9.480;2023-03-02T16:46:37;11.90;54.50
1347;DHT22;667;48.796;9.480;2023-03-02T16:49:08;11.80;54.60
1347;DHT22;667;48.796;9.480;2023-03-02T16:51:33;11.80;54.70
1347;DHT22;667;48.796;9.480;2023-03-02T16:53:59;11.80;54.80
1347;DHT22;667;48.796;9.480;2023-03-02T16:56:25;11.80;54.90
1347;DHT22;667;48.796;9.480;2023-03-02T16:58:50;11.70;54.80
1347;DHT22;667;48.796;9.480;2023-03-02T17:01:18;11.70;54.90
1347;DHT22;667;48.796;9.480;2023-03-02T17:03:45;11.70;54.90
1347;DHT22;667;48.796;9.480;2023-03-02T17:06:13;11.70;55.10
1347;DHT22;667;48.796;9.480;2023-03-02T17:08:39;11.60;55.20
1347;DHT22;667;48.796;9.480;2023-03-02T17:11:05;11.60;55.50
1347;DHT22;667;48.796;9.480;2023-03-02T17:13:31;11.60;55.90
1347;DHT22;667;48.796;9.480;2023-03-02T17:15:57;11.50;56.10
1347;DHT22;667;48.796;9.480;2023-03-02T17:18:23;11.50;56.40
1347;DHT22;667;48.796;9.480;2023-03-02T17:20:53;11.40;56.50
1347;DHT22;667;48.796;9.480;2023-03-02T17:23:19;11.40;56.80
1347;DHT22;667;48.796;9.480;2023-03-02T17:25:45;11.30;57.00
1347;DHT22;667;48.796;9.480;2023-03-02T17:28:10;11.30;57.30
1347;DHT22;667;48.796;9.480;2023-03-02T17:30:37;11.20;57.50
1347;DHT22;667;48.796;9.480;2023-03-02T17:33:03;11.20;57.80
1347;DHT22;667;48.796;9.480;2023-03-02T17:35:29;11.10;57.90
1347;DHT22;667;48.796;9.480;2023-03-02T17:37:54;11.10;58.20
1347;DHT22;667;48.796;9.480;2023-03-02T17:40:20;11.00;58.10
1347;DHT22;667;48.796;9.480;2023-03-02T17:42:46;11.00;58.20
1347;DHT22;667;48.796;9.480;2023-03-02T17:45:19;10.90;58.10
1347;DHT22;667;48.796;9.480;2023-03-02T17:47:45;10.90;58.20
1347;DHT22;667;48.796;9.480;2023-03-02T17:50:12;10.80;58.20
1347;DHT22;667;48.796;9.480;2023-03-02T17:52:38;10.80;58.20
1347;DHT22;667;48.796;9.480;2023-03-02T17:55:04;10.70;58.10
1347;DHT22;667;48.796;9.480;2023-03-02T17:57:30;10.70;58.00
1347;DHT22;667;48.796;9.480;2023-03-02T17:59:56;10.60;57.80